createdAt,value
2022-09-28T00:00:17.922Z,10.19
2022-09-28T00:02:44.573Z,10.45
2022-09-28T00:05:12.701Z,10.31
2022-09-28T00:07:39.543Z,10.44
2022-09-28T00:10:11.921Z,10.48
2022-09-28T00:12:39.228Z,10.53
2022-09-28T00:15:06.070Z,10.61
2022-09-28T00:17:33.612Z,10.44
2022-09-28T00:20:00.300Z,10.80
2022-09-28T00:22:28.395Z,10.33
2022-09-28T00:24:54.813Z,10.18
2022-09-28T00:27:21.424Z,10.55
2022-09-28T00:29:48.520Z,10.43
2022-09-28T00:32:16.636Z,10.27
2022-09-28T00:34:45.897Z,10.25
2022-09-28T00:37:14.205Z,10.40
2022-09-28T00:39:44.364Z,10.29
2022-09-28T00:42:15.367Z,10.24
2022-09-28T00:44:49.997Z,10.41
2022-09-28T00:47:49.471Z,10.23
2022-09-28T00:50:18.324Z,10.49
2022-09-28T00:52:49.243Z,10.45
2022-09-28T00:55:19.284Z,10.59
2022-09-28T00:57:49.808Z,10.52
2022-09-28T01:00:16.724Z,10.49
2022-09-28T01:02:44.364Z,10.21
2022-09-28T01:05:11.537Z,10.60
2022-09-28T01:07:39.055Z,10.68
2022-09-28T01:10:06.028Z,10.57
2022-09-28T01:12:32.548Z,10.60
2022-09-28T01:15:00.534Z,10.39
2022-09-28T01:17:48.850Z,10.58
2022-09-28T01:20:29.162Z,10.56
2022-09-28T01:23:13.060Z,10.66
2022-09-28T01:25:55.863Z,10.66
2022-09-28T01:28:29.940Z,10.64
2022-09-28T01:31:07.690Z,10.55
2022-09-28T01:33:41.481Z,10.89
2022-09-28T01:36:15.688Z,10.83
2022-09-28T01:38:43.552Z,10.87
2022-09-28T01:41:10.447Z,10.82
2022-09-28T01:43:40.852Z,10.66
2022-09-28T01:46:18.274Z,10.83
2022-09-28T01:49:31.246Z,10.64
2022-09-28T01:52:01.512Z,10.87
2022-09-28T01:54:40.308Z,10.80
2022-09-28T01:57:22.971Z,10.61
2022-09-28T01:59:57.749Z,10.75
2022-09-28T02:02:27.659Z,10.72
2022-09-28T02:04:58.646Z,10.69
2022-09-28T02:07:34.673Z,10.69
2022-09-28T02:10:07.363Z,10.85
2022-09-28T02:12:58.404Z,10.84
2022-09-28T02:15:37.150Z,10.66
2022-09-28T02:18:03.897Z,10.91
2022-09-28T02:20:32.085Z,11.06
2022-09-28T02:22:59.657Z,11.00
2022-09-28T02:25:49.806Z,11.22
2022-09-28T02:28:18.027Z,10.95
2022-09-28T02:30:45.088Z,10.93
2022-09-28T02:33:20.403Z,11.10
2022-09-28T02:35:47.255Z,10.90
2022-09-28T02:38:14.985Z,11.05
2022-09-28T02:40:44.313Z,10.99
2022-09-28T02:43:20.052Z,10.98
2022-09-28T02:46:28.469Z,11.05
2022-09-28T02:49:34.970Z,11.42
2022-09-28T02:52:12.304Z,11.00
2022-09-28T02:54:44.912Z,11.31
2022-09-28T02:57:30.451Z,11.29
2022-09-28T02:59:59.799Z,11.18
2022-09-28T03:02:29.575Z,11.03
2022-09-28T03:04:59.093Z,11.04
2022-09-28T03:07:46.949Z,11.22
2022-09-28T03:10:18.105Z,11.34
2022-09-28T03:12:46.354Z,11.38
2022-09-28T03:15:28.819Z,11.16
2022-09-28T03:17:57.557Z,11.36
2022-09-28T03:20:25.411Z,11.32
2022-09-28T03:23:12.377Z,11.44
2022-09-28T03:25:39.691Z,11.24
2022-09-28T03:28:06.324Z,11.31
2022-09-28T03:30:35.820Z,11.50
2022-09-28T03:33:03.130Z,11.21
2022-09-28T03:35:31.763Z,11.37
2022-09-28T03:37:58.372Z,11.05
2022-09-28T03:40:27.324Z,11.19
2022-09-28T03:42:54.084Z,11.21
2022-09-28T03:45:20.624Z,11.18
2022-09-28T03:47:49.085Z,11.55
2022-09-28T03:50:15.971Z,11.61
2022-09-28T03:52:42.873Z,11.33
2022-09-28T03:55:10.804Z,10.70
2022-09-28T03:57:37.485Z,11.04
2022-09-28T04:00:05.092Z,10.52
2022-09-28T04:02:40.429Z,10.94
2022-09-28T04:05:07.634Z,10.82
2022-09-28T04:07:34.223Z,11.30
2022-09-28T04:10:01.078Z,11.31
2022-09-28T04:12:27.678Z,11.46
2022-09-28T04:14:54.274Z,11.54
2022-09-28T04:17:20.866Z,10.93
2022-09-28T04:19:47.997Z,11.33
2022-09-28T04:22:33.548Z,11.25
2022-09-28T04:25:00.552Z,11.25
2022-09-28T04:27:45.905Z,11.19
2022-09-28T04:30:12.734Z,11.48
2022-09-28T04:32:40.928Z,11.54
2022-09-28T04:35:08.652Z,11.52
2022-09-28T04:37:35.327Z,11.30
2022-09-28T04:40:02.139Z,11.41
2022-09-28T04:42:30.629Z,11.37
2022-09-28T04:44:58.809Z,11.44
2022-09-28T04:47:25.357Z,11.50
2022-09-28T04:50:15.681Z,11.56
2022-09-28T04:53:05.253Z,11.35
2022-09-28T04:55:32.648Z,11.39
2022-09-28T04:58:02.662Z,11.62
2022-09-28T05:00:35.232Z,11.61
2022-09-28T05:03:10.748Z,11.47
2022-09-28T05:05:56.075Z,11.61
2022-09-28T05:08:43.414Z,11.55
2022-09-28T05:11:11.801Z,11.70
2022-09-28T05:13:43.392Z,11.72
2022-09-28T05:16:11.141Z,11.87
2022-09-28T05:18:57.648Z,11.71
2022-09-28T05:21:26.293Z,11.71
2022-09-28T05:23:56.035Z,11.77
2022-09-28T05:26:23.267Z,11.77
2022-09-28T05:28:49.959Z,11.76
2022-09-28T05:31:35.275Z,11.53
2022-09-28T05:34:30.931Z,11.39
2022-09-28T05:36:57.624Z,11.30
2022-09-28T05:39:24.221Z,11.54
2022-09-28T05:41:50.739Z,11.43
2022-09-28T05:44:17.463Z,11.36
2022-09-28T05:46:44.245Z,11.25
2022-09-28T05:49:12.919Z,11.32
2022-09-28T05:51:39.556Z,11.28
2022-09-28T05:54:06.459Z,11.03
2022-09-28T05:56:35.737Z,11.15
2022-09-28T05:59:06.219Z,10.58
2022-09-28T06:01:32.923Z,11.18
2022-09-28T06:04:01.459Z,11.21
2022-09-28T06:06:28.058Z,11.34
2022-09-28T06:08:56.296Z,11.23
2022-09-28T06:11:43.101Z,11.28
2022-09-28T06:14:21.582Z,11.32
2022-09-28T06:16:48.181Z,11.43
2022-09-28T06:19:14.956Z,11.36
2022-09-28T06:21:58.401Z,11.32
2022-09-28T06:24:26.001Z,11.39
2022-09-28T06:26:52.792Z,11.49
2022-09-28T06:29:20.388Z,11.53
2022-09-28T06:31:47.557Z,11.51
2022-09-28T06:34:14.292Z,11.35
2022-09-28T06:36:41.086Z,11.48
2022-09-28T06:39:08.725Z,11.60
2022-09-28T06:41:36.517Z,11.51
2022-09-28T06:44:12.943Z,11.60
2022-09-28T06:47:01.225Z,11.63
2022-09-28T06:49:47.724Z,11.87
2022-09-28T06:52:37.028Z,11.70
2022-09-28T06:55:09.264Z,11.73
2022-09-28T06:57:43.708Z,11.73
2022-09-28T07:00:11.351Z,11.86
2022-09-28T07:02:38.013Z,11.91
2022-09-28T07:05:29.607Z,11.92
2022-09-28T07:08:19.856Z,11.72
2022-09-28T07:11:07.630Z,11.73
2022-09-28T07:13:50.362Z,12.12
2022-09-28T07:16:24.160Z,12.07
2022-09-28T07:18:53.280Z,12.24
2022-09-28T07:21:28.717Z,12.33
2022-09-28T07:23:56.911Z,12.45
2022-09-28T07:26:24.756Z,12.60
2022-09-28T07:29:13.138Z,12.59
2022-09-28T07:31:59.077Z,12.35
2022-09-28T07:34:44.597Z,11.92
2022-09-28T07:37:27.768Z,11.94
2022-09-28T07:40:13.101Z,12.17
2022-09-28T07:42:39.770Z,12.05
2022-09-28T07:45:07.318Z,12.15
2022-09-28T07:47:35.295Z,12.37
2022-09-28T07:50:18.079Z,12.58
2022-09-28T07:53:05.947Z,12.66
2022-09-28T07:55:52.540Z,12.77
2022-09-28T07:58:37.821Z,12.84
2022-09-28T08:01:27.846Z,12.74
2022-09-28T08:03:56.334Z,12.86
2022-09-28T08:06:23.772Z,12.87
2022-09-28T08:08:51.482Z,12.73
2022-09-28T08:11:19.776Z,12.72
2022-09-28T08:14:12.240Z,13.03
2022-09-28T08:16:53.358Z,12.91
2022-09-28T08:20:04.683Z,12.79
2022-09-28T08:22:32.419Z,12.50
2022-09-28T08:25:00.289Z,12.55
2022-09-28T08:27:26.904Z,12.72
2022-09-28T08:29:53.835Z,12.59
2022-09-28T08:32:46.721Z,12.71
2022-09-28T08:35:58.514Z,12.90
2022-09-28T08:38:47.975Z,13.36
2022-09-28T08:42:09.103Z,13.36
2022-09-28T08:44:59.248Z,13.45
2022-09-28T08:48:14.250Z,13.37
2022-09-28T08:51:17.243Z,12.87
2022-09-28T08:54:39.919Z,13.08
2022-09-28T08:57:19.480Z,13.00
2022-09-28T08:59:55.740Z,13.03
2022-09-28T09:02:33.508Z,13.10
2022-09-28T09:05:19.056Z,12.58
2022-09-28T09:08:08.069Z,13.08
2022-09-28T09:11:02.885Z,13.43
2022-09-28T09:14:00.083Z,12.96
2022-09-28T09:16:49.283Z,13.28
2022-09-28T09:19:54.571Z,13.13
2022-09-28T09:22:39.256Z,13.77
2022-09-28T09:25:18.087Z,13.51
2022-09-28T09:27:55.712Z,13.65
2022-09-28T09:30:25.677Z,13.92
2022-09-28T09:33:24.119Z,13.62
2022-09-28T09:36:47.451Z,13.50
2022-09-28T09:40:25.613Z,14.49
2022-09-28T09:43:19.867Z,13.91
2022-09-28T09:46:12.220Z,14.00
2022-09-28T09:49:04.581Z,13.54
2022-09-28T09:51:41.941Z,13.71
2022-09-28T09:54:25.610Z,13.22
2022-09-28T09:57:03.715Z,13.03
2022-09-28T09:59:59.120Z,12.96
2022-09-28T10:02:42.277Z,13.54
2022-09-28T10:05:29.879Z,12.96
2022-09-28T10:08:03.737Z,13.62
2022-09-28T10:10:36.027Z,14.00
2022-09-28T10:13:08.745Z,13.86
2022-09-28T10:15:36.488Z,14.24
2022-09-28T10:18:32.419Z,14.44
2022-09-28T10:21:26.609Z,14.50
2022-09-28T10:24:02.534Z,14.52
2022-09-28T10:26:41.772Z,14.63
2022-09-28T10:29:17.869Z,13.98
2022-09-28T10:31:52.839Z,14.27
2022-09-28T10:34:28.764Z,13.93
2022-09-28T10:37:01.162Z,13.94
2022-09-28T10:39:36.963Z,13.71
2022-09-28T10:42:08.124Z,13.34
2022-09-28T10:44:48.560Z,13.40
2022-09-28T10:47:32.732Z,13.57
2022-09-28T10:49:59.643Z,14.28
2022-09-28T10:52:39.835Z,13.30
2022-09-28T10:55:26.218Z,13.78
2022-09-28T10:57:53.193Z,13.40
2022-09-28T11:00:30.206Z,13.78
2022-09-28T11:03:41.852Z,13.30
2022-09-28T11:06:08.802Z,13.35
2022-09-28T11:08:38.881Z,13.60
2022-09-28T11:11:09.866Z,13.71
2022-09-28T11:13:56.625Z,14.20
2022-09-28T11:16:32.689Z,14.33
2022-09-28T11:19:06.809Z,14.13
2022-09-28T11:21:42.946Z,13.79
2022-09-28T11:24:18.933Z,14.21
2022-09-28T11:26:46.871Z,14.26
2022-09-28T11:29:43.657Z,14.01
2022-09-28T11:32:41.140Z,14.19
2022-09-28T11:35:54.094Z,14.60
2022-09-28T11:38:40.596Z,14.47
2022-09-28T11:41:47.430Z,14.52
2022-09-28T11:44:23.131Z,14.73
2022-09-28T11:47:10.677Z,14.44
2022-09-28T11:50:24.121Z,14.13
2022-09-28T11:52:55.976Z,14.33
2022-09-28T11:55:40.893Z,14.54
2022-09-28T11:59:13.488Z,14.72
2022-09-28T12:01:52.539Z,14.86
2022-09-28T12:05:17.197Z,14.40
2022-09-28T12:07:50.379Z,15.07
2022-09-28T12:10:48.158Z,14.75
2022-09-28T12:13:20.576Z,14.74
2022-09-28T12:17:04.156Z,14.83
2022-09-28T12:19:38.646Z,14.74
2022-09-28T12:22:13.799Z,15.32
2022-09-28T12:24:46.270Z,15.03
2022-09-28T12:27:14.726Z,14.97
2022-09-28T12:29:44.512Z,14.63
2022-09-28T12:32:24.149Z,14.95
2022-09-28T12:34:50.906Z,14.73
2022-09-28T12:37:20.213Z,14.71
2022-09-28T12:40:03.375Z,14.96
2022-09-28T12:42:56.537Z,15.22
2022-09-28T12:45:42.894Z,15.04
2022-09-28T12:48:20.895Z,14.99
2022-09-28T12:51:04.357Z,14.82
2022-09-28T12:53:38.786Z,15.41
2022-09-28T12:56:11.733Z,15.19
2022-09-28T12:59:01.114Z,14.70
2022-09-28T13:01:37.389Z,14.90
2022-09-28T13:04:35.452Z,14.87
2022-09-28T13:07:06.606Z,15.08
2022-09-28T13:09:53.441Z,14.99
2022-09-28T13:13:14.016Z,15.34
2022-09-28T13:16:07.633Z,14.87
2022-09-28T13:18:37.288Z,14.91
2022-09-28T13:21:21.503Z,15.33
2022-09-28T13:23:50.448Z,15.19
2022-09-28T13:26:26.179Z,15.13
2022-09-28T13:28:56.030Z,15.02
2022-09-28T13:31:30.871Z,15.33
2022-09-28T13:34:03.152Z,14.85
2022-09-28T13:36:30.431Z,14.95
2022-09-28T13:38:59.573Z,15.20
2022-09-28T13:41:29.803Z,14.83
2022-09-28T13:44:23.792Z,14.99
2022-09-28T13:47:00.258Z,15.21
2022-09-28T13:49:31.082Z,14.66
2022-09-28T13:52:02.744Z,14.83
2022-09-28T13:54:43.454Z,14.56
2022-09-28T13:57:36.124Z,15.18
2022-09-28T14:00:25.387Z,15.00
2022-09-28T14:03:01.488Z,14.56
2022-09-28T14:05:58.931Z,14.79
2022-09-28T14:08:38.875Z,14.62
2022-09-28T14:11:34.232Z,14.66
2022-09-28T14:14:13.920Z,15.05
2022-09-28T14:16:41.758Z,15.12
2022-09-28T14:19:10.346Z,15.09
2022-09-28T14:21:48.883Z,15.14
2022-09-28T14:24:43.843Z,15.25
2022-09-28T14:27:17.312Z,15.20
2022-09-28T14:29:44.186Z,15.11
2022-09-28T14:32:11.073Z,14.85
2022-09-28T14:34:43.043Z,14.98
2022-09-28T14:37:46.179Z,14.95
2022-09-28T14:40:50.710Z,14.54
2022-09-28T14:43:26.303Z,14.80
2022-09-28T14:46:10.019Z,14.91
2022-09-28T14:48:47.952Z,15.17
2022-09-28T14:51:26.562Z,14.80
2022-09-28T14:53:54.799Z,14.77
2022-09-28T14:56:21.821Z,14.50
2022-09-28T14:58:54.020Z,14.55
2022-09-28T15:01:22.853Z,14.86
2022-09-28T15:03:52.291Z,14.67
2022-09-28T15:06:22.863Z,14.83
2022-09-28T15:08:52.679Z,14.98
2022-09-28T15:11:24.364Z,14.93
2022-09-28T15:13:55.705Z,14.64
2022-09-28T15:16:23.903Z,14.60
2022-09-28T15:18:58.108Z,14.65
2022-09-28T15:21:32.876Z,14.74
2022-09-28T15:23:59.551Z,14.59
2022-09-28T15:26:31.261Z,14.76
2022-09-28T15:28:58.886Z,14.78
2022-09-28T15:31:27.147Z,14.53
2022-09-28T15:34:12.501Z,14.82
2022-09-28T15:36:43.363Z,14.89
2022-09-28T15:39:16.221Z,14.43
2022-09-28T15:41:44.157Z,14.67
2022-09-28T15:44:10.613Z,14.82
2022-09-28T15:46:42.856Z,14.88
2022-09-28T15:49:25.598Z,14.70
2022-09-28T15:52:02.981Z,14.76
2022-09-28T15:54:36.615Z,14.44
2022-09-28T15:57:03.363Z,14.51
2022-09-28T15:59:38.194Z,14.21
2022-09-28T16:02:20.661Z,14.51
2022-09-28T16:04:51.700Z,14.48
2022-09-28T16:07:18.399Z,14.54
2022-09-28T16:09:56.067Z,14.27
2022-09-28T16:12:23.991Z,14.35
2022-09-28T16:14:53.575Z,14.36
2022-09-28T16:17:38.391Z,14.33
2022-09-28T16:20:20.386Z,14.44
2022-09-28T16:22:46.910Z,14.50
2022-09-28T16:25:23.851Z,14.09
2022-09-28T16:27:51.787Z,14.20
2022-09-28T16:30:24.271Z,13.93
2022-09-28T16:32:53.800Z,14.15
2022-09-28T16:35:22.804Z,14.21
2022-09-28T16:37:57.753Z,14.09
2022-09-28T16:40:24.412Z,13.75
2022-09-28T16:42:51.574Z,13.75
2022-09-28T16:45:23.784Z,13.67
2022-09-28T16:47:54.513Z,13.54
2022-09-28T16:50:21.772Z,13.45
2022-09-28T16:53:17.388Z,13.30
2022-09-28T16:55:44.672Z,13.29
2022-09-28T16:58:11.419Z,13.29
2022-09-28T17:00:38.096Z,13.26
2022-09-28T17:03:16.220Z,13.07
2022-09-28T17:05:43.055Z,12.91
2022-09-28T17:08:13.624Z,13.00
2022-09-28T17:11:13.943Z,13.11
2022-09-28T17:13:41.351Z,13.07
2022-09-28T17:16:36.706Z,13.03
2022-09-28T17:19:20.705Z,13.09
2022-09-28T17:21:47.686Z,13.10
2022-09-28T17:24:14.369Z,13.06
2022-09-28T17:26:43.744Z,12.99
2022-09-28T17:29:14.345Z,12.94
2022-09-28T17:31:42.827Z,12.87
2022-09-28T17:34:11.085Z,12.82
2022-09-28T17:36:37.940Z,12.56
2022-09-28T17:39:05.018Z,12.34
2022-09-28T17:41:32.176Z,12.32
2022-09-28T17:44:00.145Z,12.32
2022-09-28T17:46:27.219Z,12.42
2022-09-28T17:48:54.625Z,12.41
2022-09-28T17:51:22.486Z,12.46
2022-09-28T17:53:49.226Z,12.60
2022-09-28T17:56:16.196Z,12.65
2022-09-28T17:58:42.830Z,12.69
2022-09-28T18:01:09.855Z,12.73
2022-09-28T18:03:36.713Z,12.74
2022-09-28T18:06:03.624Z,12.79
2022-09-28T18:08:30.759Z,12.77
2022-09-28T18:10:57.317Z,12.75
2022-09-28T18:13:24.875Z,12.72
2022-09-28T18:15:52.372Z,12.74
2022-09-28T18:18:19.174Z,12.73
2022-09-28T18:20:45.821Z,12.74
2022-09-28T18:23:12.424Z,12.67
2022-09-28T18:25:40.670Z,12.61
2022-09-28T18:28:07.492Z,12.62
2022-09-28T18:30:38.248Z,12.51
2022-09-28T18:33:05.085Z,12.38
2022-09-28T18:35:31.646Z,12.26
2022-09-28T18:37:58.480Z,12.32
2022-09-28T18:40:25.414Z,12.26
2022-09-28T18:42:52.607Z,12.01
2022-09-28T18:45:19.326Z,11.99
2022-09-28T18:47:45.866Z,12.03
2022-09-28T18:50:12.997Z,12.12
2022-09-28T18:52:39.729Z,12.06
2022-09-28T18:55:07.669Z,11.93
2022-09-28T18:57:34.823Z,11.85
2022-09-28T19:00:07.660Z,11.82
2022-09-28T19:02:34.607Z,11.78
2022-09-28T19:05:01.218Z,11.67
2022-09-28T19:07:27.753Z,11.62
2022-09-28T19:09:54.343Z,11.49
2022-09-28T19:12:20.975Z,11.51
2022-09-28T19:14:47.569Z,11.46
2022-09-28T19:17:14.179Z,11.41
2022-09-28T19:19:42.667Z,11.27
2022-09-28T19:22:09.391Z,11.24
2022-09-28T19:24:36.017Z,11.35
2022-09-28T19:27:02.608Z,11.35
2022-09-28T19:29:29.298Z,11.29
2022-09-28T19:31:56.987Z,11.16
2022-09-28T19:34:26.851Z,11.20
2022-09-28T19:36:53.547Z,11.18
2022-09-28T19:39:20.117Z,11.12
2022-09-28T19:41:51.187Z,11.06
2022-09-28T19:44:27.646Z,11.01
2022-09-28T19:46:59.235Z,11.07
2022-09-28T19:49:27.390Z,11.09
2022-09-28T19:52:14.199Z,11.09
2022-09-28T19:54:56.795Z,11.12
2022-09-28T19:57:25.040Z,10.98
2022-09-28T19:59:53.725Z,10.99
2022-09-28T20:02:21.902Z,11.09
2022-09-28T20:04:48.856Z,10.92
2022-09-28T20:07:15.707Z,11.04
2022-09-28T20:09:42.325Z,11.00
2022-09-28T20:12:09.453Z,11.00
2022-09-28T20:14:40.135Z,10.99
2022-09-28T20:17:07.509Z,10.98
2022-09-28T20:19:35.022Z,10.86
2022-09-28T20:22:02.973Z,10.93
2022-09-28T20:24:30.376Z,10.98
2022-09-28T20:26:58.041Z,11.03
2022-09-28T20:29:25.093Z,11.19
2022-09-28T20:31:51.933Z,11.17
2022-09-28T20:34:18.720Z,11.23
2022-09-28T20:36:45.327Z,11.36
2022-09-28T20:39:12.233Z,11.39
2022-09-28T20:41:40.348Z,11.41
2022-09-28T20:44:07.315Z,11.33
2022-09-28T20:46:35.273Z,11.35
2022-09-28T20:49:02.016Z,11.34
2022-09-28T20:51:28.673Z,11.35
2022-09-28T20:53:57.314Z,11.38
2022-09-28T20:56:25.931Z,11.33
2022-09-28T20:58:56.845Z,11.35
2022-09-28T21:01:25.421Z,11.34
2022-09-28T21:03:54.730Z,11.30
2022-09-28T21:06:23.196Z,11.22
2022-09-28T21:08:50.133Z,11.07
2022-09-28T21:11:18.790Z,10.95
2022-09-28T21:13:45.802Z,11.01
2022-09-28T21:16:14.969Z,10.91
2022-09-28T21:18:42.207Z,10.84
2022-09-28T21:21:14.356Z,10.77
2022-09-28T21:23:41.093Z,10.80
2022-09-28T21:26:10.575Z,10.81
2022-09-28T21:28:37.634Z,10.64
2022-09-28T21:31:10.259Z,10.46
2022-09-28T21:33:37.230Z,10.62
2022-09-28T21:36:06.280Z,10.75
2022-09-28T21:38:33.691Z,10.86
2022-09-28T21:41:00.282Z,10.74
2022-09-28T21:43:28.324Z,10.87
2022-09-28T21:45:55.105Z,10.70
2022-09-28T21:48:23.287Z,10.70
2022-09-28T21:50:56.715Z,10.47
2022-09-28T21:53:29.002Z,10.43
2022-09-28T21:55:58.141Z,10.46
2022-09-28T21:58:26.927Z,10.44
2022-09-28T22:01:01.194Z,10.39
2022-09-28T22:03:29.179Z,10.46
2022-09-28T22:05:55.802Z,10.52
2022-09-28T22:08:22.780Z,10.56
2022-09-28T22:11:03.016Z,10.57
2022-09-28T22:13:30.951Z,10.63
2022-09-28T22:15:58.763Z,10.62
2022-09-28T22:18:26.553Z,10.63
2022-09-28T22:21:06.422Z,10.64
2022-09-28T22:23:33.707Z,10.68
2022-09-28T22:26:01.133Z,10.68
2022-09-28T22:28:28.005Z,10.69
2022-09-28T22:30:55.208Z,10.71
2022-09-28T22:33:22.164Z,10.74
2022-09-28T22:35:51.060Z,10.70
2022-09-28T22:38:19.115Z,10.74
2022-09-28T22:40:52.918Z,10.70
2022-09-28T22:43:19.619Z,10.74
2022-09-28T22:45:46.289Z,10.77
2022-09-28T22:48:13.269Z,10.83
2022-09-28T22:50:48.067Z,10.73
2022-09-28T22:53:15.073Z,10.64
2022-09-28T22:55:41.865Z,10.62
2022-09-28T22:58:08.516Z,10.63
2022-09-28T23:00:35.207Z,10.54
2022-09-28T23:03:01.847Z,10.57
2022-09-28T23:05:28.503Z,10.51
2022-09-28T23:07:55.051Z,10.45
2022-09-28T23:10:21.558Z,10.40
2022-09-28T23:12:48.168Z,10.51
2022-09-28T23:15:15.342Z,10.56
2022-09-28T23:17:41.883Z,10.49
2022-09-28T23:20:08.768Z,10.46
2022-09-28T23:22:35.412Z,10.40
2022-09-28T23:25:01.986Z,10.37
2022-09-28T23:27:28.574Z,10.16
2022-09-28T23:29:55.123Z,10.24
2022-09-28T23:32:21.658Z,10.32
2022-09-28T23:34:48.296Z,10.24
2022-09-28T23:37:14.822Z,10.27
2022-09-28T23:39:42.287Z,10.46
2022-09-28T23:42:08.840Z,10.39
2022-09-28T23:44:35.797Z,10.51
2022-09-28T23:47:02.449Z,10.61
2022-09-28T23:49:29.628Z,10.63
2022-09-28T23:51:56.217Z,10.62
2022-09-28T23:54:22.833Z,10.63
2022-09-28T23:56:49.518Z,10.25
2022-09-28T23:59:16.299Z,10.34
